Time;durP1;ratioP1;P1;durP2;ratioP2;P2;SDS_P1;SDS_P2;PMS_P1;PMS_P2;Temp;Humidity;BMP_temperature;BMP_pressure;BME280_temperature;BME280_humidity;BME280_pressure;Samples;Min_cycle;Max_cycle;Signal;HPM_P1;HPM_P2
2022/08/21 00:01:17;;;;;;;15.98;14.38;;;;;;;19.55;100.00;99269.53;5051233;28;20025;-83
2022/08/21 00:03:43;;;;;;;14.82;13.40;;;;;;;19.49;100.00;99264.78;5049916;28;20063;-83
2022/08/21 00:06:09;;;;;;;16.08;14.55;;;;;;;19.45;100.00;99269.50;5051610;28;20029;-83
2022/08/21 00:08:34;;;;;;;15.50;14.02;;;;;;;19.47;100.00;99284.34;5048993;28;20025;-84
2022/08/21 00:11:00;;;;;;;15.90;14.40;;;;;;;19.26;100.00;99251.00;5051237;28;20462;-85
2022/08/21 00:13:26;;;;;;;17.10;14.90;;;;;;;19.39;100.00;99275.34;5049455;28;20033;-85
2022/08/21 00:15:51;;;;;;;15.77;14.18;;;;;;;19.42;100.00;99282.13;5053512;28;20048;-85
2022/08/21 00:18:17;;;;;;;16.23;14.63;;;;;;;19.42;100.00;99282.13;5053410;28;20033;-84
2022/08/21 00:20:44;;;;;;;17.05;15.35;;;;;;;19.40;100.00;99282.28;5055102;28;20017;-85
2022/08/21 00:23:10;;;;;;;17.58;15.77;;;;;;;19.42;100.00;99295.34;5055365;28;20119;-83
2022/08/21 00:25:37;;;;;;;16.33;14.75;;;;;;;19.40;100.00;99292.00;5053340;28;20064;-83
2022/08/21 00:28:04;;;;;;;17.40;15.73;;;;;;;19.33;100.00;99290.88;5054752;28;20064;-83
2022/08/21 00:30:31;;;;;;;17.20;15.40;;;;;;;19.32;100.00;99282.13;5053712;28;20374;-83
2022/08/21 00:32:57;;;;;;;17.50;14.52;;;;;;;19.28;100.00;99278.09;5052567;28;20060;-84
2022/08/21 00:35:28;;;;;;;17.27;15.57;;;;;;;19.29;100.00;99266.53;5058955;28;20036;-82
2022/08/21 00:37:54;;;;;;;16.23;14.73;;;;;;;19.19;100.00;99250.69;5048005;28;20032;-83
2022/08/21 00:40:37;;;;;;;15.88;14.38;;;;;;;19.18;100.00;99242.91;5062896;28;20032;-83
2022/08/21 00:43:04;;;;;;;16.48;13.85;;;;;;;19.23;100.00;99250.44;5050309;28;20048;-83
2022/08/21 00:45:29;;;;;;;14.60;13.20;;;;;;;19.20;100.00;99240.97;5062500;28;20033;-82
2022/08/21 00:47:55;;;;;;;14.95;13.45;;;;;;;19.17;100.00;99247.38;5050219;28;20028;-82
2022/08/21 00:50:22;;;;;;;15.35;13.95;;;;;;;19.15;100.00;99251.94;5050771;28;20036;-82
2022/08/21 00:52:51;;;;;;;13.77;12.48;;;;;;;19.16;100.00;99252.75;5051645;28;20576;-83
2022/08/21 00:55:17;;;;;;;15.98;13.25;;;;;;;19.11;100.00;99244.41;5062843;28;20024;-83
2022/08/21 00:57:47;;;;;;;13.60;12.20;;;;;;;19.10;100.00;99235.69;5051354;28;20405;-83
2022/08/21 01:00:16;;;;;;;13.07;11.77;;;;;;;19.08;100.00;99242.03;5061484;28;20361;-83
2022/08/21 01:02:42;;;;;;;13.15;11.93;;;;;;;19.10;100.00;99250.69;5053653;28;20757;-82
2022/08/21 01:05:07;;;;;;;11.52;10.38;;;;;;;19.05;100.00;99247.63;5062113;28;20040;-82
2022/08/21 01:07:33;;;;;;;10.68;9.68;;;;;;;19.00;100.00;99250.63;5049426;28;20035;-83
2022/08/21 01:09:59;;;;;;;10.85;9.75;;;;;;;19.02;100.00;99250.53;5063263;28;20017;-82
2022/08/21 01:12:25;;;;;;;10.85;9.45;;;;;;;19.00;100.00;99245.34;5063456;28;20033;-82
2022/08/21 01:14:51;;;;;;;10.70;9.65;;;;;;;18.91;100.00;99236.44;5061950;28;20063;-83
2022/08/21 01:17:20;;;;;;;11.48;10.38;;;;;;;19.01;100.00;99248.84;5049892;28;20049;-82
2022/08/21 01:19:45;;;;;;;10.55;9.13;;;;;;;18.91;100.00;99239.09;5062219;28;20025;-83
2022/08/21 01:22:11;;;;;;;10.13;9.10;;;;;;;18.93;100.00;99241.59;5054574;28;20032;-83
2022/08/21 01:24:36;;;;;;;10.30;9.23;;;;;;;18.93;100.00;99241.59;5048370;28;20077;-83
2022/08/21 01:27:02;;;;;;;9.85;8.75;;;;;;;18.93;100.00;99245.06;5053915;28;20033;-82
2022/08/21 01:29:34;;;;;;;9.63;8.35;;;;;;;18.83;100.00;99230.16;5053998;28;20025;-83
2022/08/21 01:32:04;;;;;;;8.02;7.22;;;;;;;18.81;100.00;99232.94;5052403;28;20033;-83
2022/08/21 01:34:30;;;;;;;7.65;6.88;;;;;;;18.82;100.00;99242.53;5053583;28;20021;-82
2022/08/21 01:36:55;;;;;;;7.10;6.50;;;;;;;18.78;100.00;99235.03;5053018;28;20035;-82
2022/08/21 01:39:21;;;;;;;7.90;6.60;;;;;;;18.72;100.00;99219.75;5052623;28;20028;-82
2022/08/21 01:41:46;;;;;;;7.57;6.82;;;;;;;18.76;100.00;99219.34;5054055;28;20430;-82
2022/08/21 01:44:12;;;;;;;6.60;6.00;;;;;;;18.62;100.00;99204.66;5052348;28;20023;-82
2022/08/21 01:46:37;;;;;;;6.57;5.88;;;;;;;18.72;100.00;99214.47;5056962;28;20444;-83
2022/08/21 01:49:05;;;;;;;5.53;5.03;;;;;;;18.70;100.00;99201.38;5055769;28;20420;-83
2022/08/21 01:51:30;;;;;;;6.15;5.55;;;;;;;18.66;100.00;99205.22;5073832;28;20028;-82
2022/08/21 01:53:55;;;;;;;5.28;4.50;;;;;;;18.66;100.00;99194.69;5052651;28;20089;-82
2022/08/21 01:56:21;;;;;;;6.47;4.20;;;;;;;18.68;100.00;99192.75;5052231;28;20470;-83
2022/08/21 01:58:48;;;;;;;4.15;3.78;;;;;;;18.65;100.00;99183.28;5053679;28;20031;-82
2022/08/21 02:01:14;;;;;;;3.75;3.45;;;;;;;18.67;100.00;99196.38;5053702;28;20035;-82
2022/08/21 02:03:40;;;;;;;4.72;3.78;;;;;;;18.60;100.00;99177.59;5053425;28;20056;-84
2022/08/21 02:06:07;;;;;;;4.50;3.30;;;;;;;18.61;100.00;99178.44;5052502;28;20196;-84
2022/08/21 02:08:32;;;;;;;4.03;3.70;;;;;;;18.67;100.00;99193.72;5053452;28;20088;-82
2022/08/21 02:10:58;;;;;;;5.97;3.30;;;;;;;18.63;100.00;99187.06;5052220;28;20489;-83
2022/08/21 02:13:24;;;;;;;3.58;3.28;;;;;;;18.64;100.00;99194.00;5053358;28;20025;-83
2022/08/21 02:15:50;;;;;;;3.17;2.97;;;;;;;18.60;100.00;99182.88;5053869;28;20047;-83
2022/08/21 02:18:15;;;;;;;2.90;2.70;;;;;;;18.53;100.00;99175.63;5051987;28;20528;-83
2022/08/21 02:20:46;;;;;;;3.38;3.08;;;;;;;18.62;100.00;99199.38;5053450;28;20024;-83
2022/08/21 02:23:12;;;;;;;3.70;3.40;;;;;;;18.61;100.00;99202.16;5053534;28;20033;-83
2022/08/21 02:25:38;;;;;;;3.05;2.85;;;;;;;18.56;100.00;99194.66;5053431;28;20068;-83
2022/08/21 02:28:07;;;;;;;3.30;3.00;;;;;;;18.51;100.00;99190.75;5051897;28;20061;-83
2022/08/21 02:30:37;;;;;;;4.38;2.83;;;;;;;18.51;100.00;99196.03;5051419;28;20481;-83
2022/08/21 02:33:04;;;;;;;2.75;2.55;;;;;;;18.51;100.00;99191.59;5051760;28;20029;-84
2022/08/21 02:35:29;;;;;;;4.68;3.17;;;;;;;18.52;100.00;99195.06;5052880;28;20108;-83
2022/08/21 02:38:06;;;;;;;3.25;2.95;;;;;;;18.42;100.00;99181.84;5050928;28;20116;-83
2022/08/21 02:40:36;;;;;;;3.90;3.50;;;;;;;18.43;100.00;99186.97;5052739;28;20029;-83
2022/08/21 02:43:02;;;;;;;3.97;3.58;;;;;;;18.41;100.00;99186.28;5048499;28;20037;-83
2022/08/21 02:45:29;;;;;;;3.58;3.28;;;;;;;18.43;100.00;99183.50;5028987;28;20133;-82
2022/08/21 02:47:59;;;;;;;3.90;3.60;;;;;;;18.41;100.00;99186.28;5013710;28;20506;-83
2022/08/21 02:50:33;;;;;;;5.18;4.10;;;;;;;18.38;100.00;99170.72;5030170;28;20086;-82
2022/08/21 02:53:00;;;;;;;4.50;4.03;;;;;;;18.40;100.00;99170.56;5030181;28;20073;-83
2022/08/21 02:55:27;;;;;;;5.45;4.53;;;;;;;18.26;100.00;99147.22;5013452;28;20034;-83
2022/08/21 02:57:55;;;;;;;5.22;4.35;;;;;;;18.31;100.00;99160.84;5009962;28;20527;-83
2022/08/21 03:00:23;;;;;;;4.70;4.30;;;;;;;18.29;100.00;99146.97;5010200;28;20143;-83
2022/08/21 03:02:49;;;;;;;5.15;4.63;;;;;;;18.36;100.00;99170.00;5010023;28;20080;-83
2022/08/21 03:05:15;;;;;;;5.35;4.85;;;;;;;18.31;100.00;99161.66;5010355;28;20046;-83
2022/08/21 03:07:42;;;;;;;5.82;5.28;;;;;;;18.35;100.00;99167.50;4993569;28;20037;-83
2022/08/21 03:10:09;;;;;;;5.65;5.05;;;;;;;18.37;100.00;99176.97;5010294;28;20049;-83
2022/08/21 03:12:35;;;;;;;5.55;5.05;;;;;;;18.34;100.00;99179.03;5009847;28;20053;-83
2022/08/21 03:15:06;;;;;;;5.93;5.43;;;;;;;18.31;100.00;99177.47;4993718;28;20130;-83
2022/08/21 03:17:31;;;;;;;6.97;5.70;;;;;;;18.21;100.00;99168.72;5011689;28;20037;-83
2022/08/21 03:19:57;;;;;;;8.35;6.97;;;;;;;18.27;100.00;99177.88;4990345;28;20034;-83
2022/08/21 03:22:22;;;;;;;6.70;6.10;;;;;;;18.24;100.00;99186.88;4973770;28;20136;-83
2022/08/21 03:24:48;;;;;;;7.25;6.63;;;;;;;18.25;100.00;99191.19;4974007;28;20046;-83
2022/08/21 03:27:13;;;;;;;7.35;6.53;;;;;;;18.19;100.00;99189.06;4974184;28;20121;-83
2022/08/21 03:29:39;;;;;;;6.93;6.25;;;;;;;18.21;100.00;99192.44;5006178;28;20183;-82
2022/08/21 03:32:08;;;;;;;6.95;6.35;;;;;;;18.19;100.00;99186.44;4993561;28;20029;-83
2022/08/21 03:34:35;;;;;;;7.03;6.38;;;;;;;18.21;100.00;99197.69;4993240;28;20128;-82
2022/08/21 03:37:00;;;;;;;6.80;6.10;;;;;;;18.19;100.00;99196.97;4993545;28;20030;-82
2022/08/21 03:39:25;;;;;;;6.60;6.00;;;;;;;18.13;100.00;99194.88;4993132;28;20100;-82
2022/08/21 03:41:52;;;;;;;6.10;5.60;;;;;;;18.03;100.00;99171.09;5010122;28;20038;-83
2022/08/21 03:44:17;;;;;;;6.40;5.80;;;;;;;18.13;100.00;99197.53;5010163;28;20042;-82
2022/08/21 03:46:43;;;;;;;6.30;5.70;;;;;;;18.09;100.00;99202.22;4993040;28;20034;-82
2022/08/21 03:49:08;;;;;;;6.50;5.90;;;;;;;18.10;100.00;99198.59;4993296;28;20040;-82
2022/08/21 03:51:35;;;;;;;5.90;5.40;;;;;;;18.05;100.00;99189.44;5041253;28;20041;-82
2022/08/21 03:54:00;;;;;;;6.20;5.60;;;;;;;18.11;100.00;99195.00;5051439;28;20478;-83
2022/08/21 03:56:26;;;;;;;6.25;5.75;;;;;;;18.14;100.00;99202.66;5049833;28;20036;-82
2022/08/21 03:58:51;;;;;;;6.22;5.72;;;;;;;18.14;100.00;99204.44;5050620;28;20032;-82
2022/08/21 04:01:16;;;;;;;5.95;5.38;;;;;;;18.15;100.00;99209.59;5051845;28;20060;-83
2022/08/21 04:03:42;;;;;;;6.70;6.10;;;;;;;18.15;100.00;99211.38;5049846;28;20056;-83
2022/08/21 04:06:07;;;;;;;8.27;6.10;;;;;;;18.05;100.00;99195.53;5051755;28;20071;-83
2022/08/21 04:08:33;;;;;;;5.85;5.25;;;;;;;18.17;100.00;99215.56;5050128;28;20048;-82
2022/08/21 04:10:59;;;;;;;5.93;5.32;;;;;;;18.15;100.00;99212.22;5050146;28;20025;-83
2022/08/21 04:13:26;;;;;;;5.78;5.28;;;;;;;18.10;100.00;99203.88;5050122;28;20021;-82
2022/08/21 04:15:51;;;;;;;5.72;4.95;;;;;;;18.13;100.00;99219.44;5050356;28;20032;-82
2022/08/21 04:18:17;;;;;;;5.00;4.60;;;;;;;18.14;100.00;99213.19;5050260;28;20040;-82
2022/08/21 04:20:46;;;;;;;4.75;4.35;;;;;;;18.12;100.00;99220.41;5050036;28;20413;-82
2022/08/21 04:23:11;;;;;;;5.18;4.68;;;;;;;18.06;100.00;99218.28;5051692;28;20043;-82
2022/08/21 04:25:37;;;;;;;5.25;4.35;;;;;;;18.07;100.00;99219.94;5064141;28;20024;-83
2022/08/21 04:28:03;;;;;;;4.85;4.13;;;;;;;18.09;100.00;99225.94;5071186;28;20097;-82
2022/08/21 04:30:29;;;;;;;4.57;4.10;;;;;;;18.01;100.00;99212.56;5071284;28;20035;-83
2022/08/21 04:32:56;;;;;;;4.28;3.88;;;;;;;18.04;100.00;99228.13;5053452;28;20024;-82
2022/08/21 04:35:23;;;;;;;4.55;4.18;;;;;;;17.98;100.00;99217.25;5053207;28;20028;-83
2022/08/21 04:37:48;;;;;;;4.68;4.28;;;;;;;17.94;100.00;99222.78;5071076;28;20032;-82
2022/08/21 04:40:16;;;;;;;5.00;4.50;;;;;;;17.97;100.00;99237.50;5053334;28;20116;-82
2022/08/21 04:42:45;;;;;;;5.20;4.70;;;;;;;17.86;100.00;99229.66;5071251;28;20035;-82
2022/08/21 04:45:24;;;;;;;4.70;4.30;;;;;;;17.77;100.00;99220.72;5071332;28;20024;-82
2022/08/21 04:47:54;;;;;;;5.30;4.90;;;;;;;17.83;100.00;99235.19;5053234;28;20021;-82
2022/08/21 04:50:27;;;;;;;5.50;4.95;;;;;;;17.79;100.00;99241.69;5053465;28;20654;-82
2022/08/21 04:52:53;;;;;;;5.05;4.38;;;;;;;17.66;100.00;99218.94;5053223;28;20437;-82
2022/08/21 04:55:20;;;;;;;7.07;5.43;;;;;;;17.69;100.00;99234.47;5071463;28;20025;-82
2022/08/21 04:57:46;;;;;;;5.40;4.90;;;;;;;17.60;100.00;99218.63;5053163;28;20028;-83
2022/08/21 05:00:13;;;;;;;5.50;5.00;;;;;;;17.63;100.00;99235.00;5071782;28;20029;-82
2022/08/21 05:02:41;;;;;;;5.28;4.88;;;;;;;17.67;100.00;99240.84;5056364;28;20017;-82
2022/08/21 05:05:07;;;;;;;5.18;4.60;;;;;;;17.63;100.00;99229.72;5056942;28;20032;-82
2022/08/21 05:07:34;;;;;;;7.15;4.43;;;;;;;17.67;100.00;99241.69;5056688;28;20123;-82
2022/08/21 05:10:00;;;;;;;5.30;4.80;;;;;;;17.66;100.00;99242.66;5056822;28;20431;-82
2022/08/21 05:12:26;;;;;;;5.47;5.07;;;;;;;17.56;100.00;99227.72;5074695;28;20032;-82
2022/08/21 05:14:51;;;;;;;5.20;4.80;;;;;;;17.62;100.00;99246.50;5074433;28;20077;-81
2022/08/21 05:17:16;;;;;;;5.00;4.60;;;;;;;17.61;100.00;99249.25;5074404;28;20032;-81
2022/08/21 05:19:42;;;;;;;4.68;4.28;;;;;;;17.59;100.00;99254.66;5074459;28;20025;-82
2022/08/21 05:22:09;;;;;;;5.20;4.70;;;;;;;17.64;100.00;99260.38;5056590;28;20179;-82
2022/08/21 05:24:34;;;;;;;5.00;4.60;;;;;;;17.59;100.00;99257.28;5056228;28;20021;-82
2022/08/21 05:26:59;;;;;;;5.18;4.68;;;;;;;17.62;100.00;99259.66;5056293;28;20051;-82
2022/08/21 05:29:25;;;;;;;4.22;3.92;;;;;;;17.58;100.00;99260.88;5074501;28;20051;-82
2022/08/21 05:31:50;;;;;;;4.68;4.28;;;;;;;17.62;100.00;99272.00;5056008;28;20031;-82
2022/08/21 05:34:23;;;;;;;5.00;4.60;;;;;;;17.57;100.00;99263.63;5056171;28;20380;-82
2022/08/21 05:36:48;;;;;;;5.13;4.63;;;;;;;17.61;100.00;99268.53;5055977;28;20063;-81
2022/08/21 05:39:14;;;;;;;4.97;4.57;;;;;;;17.61;100.00;99271.16;5074107;28;20040;-83
2022/08/21 05:41:40;;;;;;;5.50;5.00;;;;;;;17.68;100.00;99280.22;5073742;28;20515;-83
2022/08/21 05:44:05;;;;;;;5.13;4.53;;;;;;;17.69;100.00;99281.06;5055984;28;20027;-83
2022/08/21 05:46:31;;;;;;;5.22;4.72;;;;;;;17.62;100.00;99270.22;5073623;28;20032;-84
2022/08/21 05:48:56;;;;;;;4.85;4.47;;;;;;;17.62;100.00;99269.38;5056080;28;20388;-83
2022/08/21 05:51:21;;;;;;;5.25;4.75;;;;;;;17.61;100.00;99284.34;5073997;28;20062;-83
2022/08/21 05:53:47;;;;;;;5.47;4.97;;;;;;;17.59;100.00;99283.63;5055504;28;20059;-83
2022/08/21 05:56:14;;;;;;;5.57;5.00;;;;;;;17.59;100.00;99291.50;5055834;28;20078;-82
2022/08/21 05:58:39;;;;;;;5.22;4.72;;;;;;;17.52;100.00;99282.44;5055643;28;20021;-82
2022/08/21 06:01:06;;;;;;;5.68;5.05;;;;;;;17.58;100.00;99291.66;5055708;28;20029;-82
2022/08/21 06:03:34;;;;;;;5.88;5.28;;;;;;;17.50;100.00;99281.72;5072938;28;20122;-82
2022/08/21 06:06:00;;;;;;;5.60;5.10;;;;;;;17.60;100.00;99300.25;5073857;28;20039;-82
2022/08/21 06:08:27;;;;;;;7.30;5.63;;;;;;;17.51;100.00;99274.66;5055697;28;20126;-83
2022/08/21 06:10:54;;;;;;;4.90;4.50;;;;;;;17.52;100.00;99265.81;5055470;28;20030;-82
2022/08/21 06:13:21;;;;;;;5.05;4.55;;;;;;;17.59;100.00;99282.78;5073440;28;20105;-84
2022/08/21 06:15:47;;;;;;;6.65;4.30;;;;;;;17.58;100.00;99284.59;5050474;28;20493;-84
2022/08/21 06:18:13;;;;;;;4.47;4.07;;;;;;;17.63;100.00;99289.47;5052071;28;20116;-83
2022/08/21 06:20:39;;;;;;;5.22;4.00;;;;;;;17.59;100.00;99290.69;5051846;28;20029;-83
2022/08/21 06:23:04;;;;;;;4.30;3.90;;;;;;;17.56;100.00;99290.94;5052161;28;20071;-83
2022/08/21 06:25:30;;;;;;;5.50;4.30;;;;;;;17.47;100.00;99300.41;5051521;28;20118;-83
2022/08/21 06:28:08;;;;;;;7.03;4.80;;;;;;;17.46;100.00;99323.28;5051897;28;20052;-82
2022/08/21 06:30:35;;;;;;;4.85;4.30;;;;;;;17.35;100.00;99318.00;5051480;28;20032;-83
2022/08/21 06:33:02;;;;;;;5.90;4.97;;;;;;;17.29;100.00;99328.22;5051720;28;20031;-82
2022/08/21 06:35:28;;;;;;;7.13;5.30;;;;;;;17.30;100.00;99346.50;5051832;28;20025;-82
2022/08/21 06:37:55;;;;;;;7.47;4.95;;;;;;;17.17;100.00;99338.75;5052895;28;20029;-82
2022/08/21 06:40:21;;;;;;;5.00;4.60;;;;;;;17.17;100.00;99351.06;5053048;28;20021;-82
2022/08/21 06:42:46;;;;;;;5.80;5.28;;;;;;;17.13;100.00;99349.63;5052306;28;20036;-82
2022/08/21 06:45:12;;;;;;;6.35;4.85;;;;;;;17.11;100.00;99346.31;5053041;28;20421;-82
2022/08/21 06:47:37;;;;;;;6.47;5.57;;;;;;;17.06;100.00;99348.44;5053068;28;20067;-82
2022/08/21 06:50:04;;;;;;;6.40;5.80;;;;;;;17.12;100.00;99369.84;5052958;28;20107;-82
2022/08/21 06:52:30;;;;;;;6.00;5.50;;;;;;;17.08;100.00;99368.41;5052685;28;20075;-82
2022/08/21 06:54:55;;;;;;;7.95;5.85;;;;;;;16.96;100.00;99361.47;5052342;28;20036;-82
2022/08/21 06:57:21;;;;;;;6.75;5.55;;;;;;;16.97;100.00;99373.66;5051210;28;20111;-82
2022/08/21 06:59:47;;;;;;;6.90;4.70;;;;;;;16.92;100.00;99381.91;5051220;28;20049;-82
2022/08/21 07:02:12;;;;;;;8.23;5.43;;;;;;;16.87;100.00;99370.09;5051309;28;20071;-82
2022/08/21 07:04:37;;;;;;;10.77;5.15;;;;;;;16.82;100.00;99378.31;5052193;28;20045;-82
2022/08/21 07:07:03;;;;;;;5.32;4.20;;;;;;;16.75;100.00;99371.03;5052688;28;20025;-82
2022/08/21 07:09:28;;;;;;;7.13;5.15;;;;;;;16.70;100.00;99379.22;5051436;28;20069;-82
2022/08/21 07:11:56;;;;;;;10.43;5.43;;;;;;;16.63;100.00;99362.25;5062252;28;20049;-83
2022/08/21 07:14:22;;;;;;;8.18;4.85;;;;;;;16.57;100.00;99360.94;5059450;28;20106;-82
2022/08/21 07:16:48;;;;;;;6.93;5.15;;;;;;;16.52;100.00;99363.06;5058696;28;20485;-82
2022/08/21 07:19:14;;;;;;;7.97;4.68;;;;;;;16.55;100.00;99368.06;5060898;28;20481;-82
2022/08/21 07:21:40;;;;;;;8.45;4.85;;;;;;;16.49;100.00;99370.34;5059557;28;20020;-83
2022/08/21 07:24:05;;;;;;;7.07;4.50;;;;;;;16.51;100.00;99373.69;5049432;28;20623;-83
2022/08/21 07:26:30;;;;;;;6.75;4.55;;;;;;;16.50;100.00;99374.66;5061000;28;20373;-82
2022/08/21 07:28:56;;;;;;;8.38;4.93;;;;;;;16.47;100.00;99365.19;5051084;28;20488;-83
2022/08/21 07:31:23;;;;;;;7.93;4.60;;;;;;;16.44;100.00;99371.53;5052128;28;20416;-82
2022/08/21 07:33:48;;;;;;;7.43;4.70;;;;;;;16.37;100.00;99365.03;5044756;28;20055;-83
2022/08/21 07:36:14;;;;;;;6.68;4.93;;;;;;;16.42;100.00;99362.06;5060554;28;20476;-80
2022/08/21 07:38:39;;;;;;;4.90;4.45;;;;;;;16.38;100.00;99361.47;5060694;28;20036;-81
2022/08/21 07:41:17;;;;;;;6.10;4.13;;;;;;;16.37;100.00;99364.22;5059235;28;20017;-81
2022/08/21 07:43:44;;;;;;;7.20;4.43;;;;;;;16.34;100.00;99361.81;5048529;28;20074;-79
2022/08/21 07:46:10;;;;;;;8.32;4.30;;;;;;;16.30;100.00;99358.56;5053842;28;20116;-81
2022/08/21 07:48:35;;;;;;;8.10;4.72;;;;;;;16.20;100.00;99347.91;5053735;28;20032;-81
2022/08/21 07:51:05;;;;;;;4.50;4.05;;;;;;;16.15;100.00;99336.91;5053789;28;20029;-81
2022/08/21 07:53:30;;;;;;;5.95;4.07;;;;;;;16.18;100.00;99364.72;5071625;28;20090;-80
2022/08/21 07:56:00;;;;;;;7.07;3.92;;;;;;;16.17;100.00;99365.69;5071378;28;20028;-81
2022/08/21 07:58:25;;;;;;;4.57;3.90;;;;;;;16.14;100.00;99363.31;5053841;28;20074;-81
2022/08/21 08:00:50;;;;;;;6.28;3.63;;;;;;;16.06;100.00;99370.91;5071407;28;20024;-79
2022/08/21 08:03:16;;;;;;;8.00;4.93;;;;;;;16.06;100.00;99376.19;5069406;28;20060;-80
2022/08/21 08:05:41;;;;;;;6.38;3.80;;;;;;;16.08;100.00;99382.13;5050219;28;20432;-80
2022/08/21 08:08:07;;;;;;;6.60;4.05;;;;;;;16.05;100.00;99370.06;5051526;28;20056;-79
2022/08/21 08:10:32;;;;;;;6.40;4.43;;;;;;;16.05;100.00;99375.31;5051660;28;20036;-79
2022/08/21 08:12:58;;;;;;;5.53;4.03;;;;;;;16.07;100.00;99377.84;5066229;28;20032;-79
2022/08/21 08:15:25;;;;;;;5.03;4.03;;;;;;;16.10;100.00;99390.75;5071602;28;20062;-78
2022/08/21 08:17:50;;;;;;;7.43;4.03;;;;;;;16.01;100.00;99379.13;5051313;28;20025;-79
2022/08/21 08:20:18;;;;;;;6.00;4.15;;;;;;;16.12;100.00;99394.94;5071181;28;20362;-79
2022/08/21 08:22:44;;;;;;;6.15;3.80;;;;;;;16.14;100.00;99407.97;5070848;28;20028;-79
2022/08/21 08:25:12;;;;;;;4.15;3.60;;;;;;;16.12;100.00;99404.59;5053338;28;20034;-79
2022/08/21 08:27:38;;;;;;;7.72;3.53;;;;;;;16.13;100.00;99409.75;5068468;28;20057;-79
2022/08/21 08:30:06;;;;;;;4.45;3.55;;;;;;;16.11;100.00;99401.16;5063840;28;20081;-79
2022/08/21 08:32:31;;;;;;;4.60;3.80;;;;;;;16.06;100.00;99386.69;5050872;28;20067;-79
2022/08/21 08:34:57;;;;;;;5.28;3.70;;;;;;;16.21;100.00;99398.66;5052977;28;20116;-79
2022/08/21 08:37:22;;;;;;;5.45;3.92;;;;;;;16.25;100.00;99405.38;5074561;28;20036;-78
2022/08/21 08:39:49;;;;;;;4.43;3.80;;;;;;;16.21;100.00;99390.78;5075008;28;20029;-80
2022/08/21 08:42:29;;;;;;;5.22;3.33;;;;;;;16.25;100.00;99396.66;5056732;28;20024;-78
2022/08/21 08:45:19;;;;;;;3.75;3.00;;;;;;;16.37;100.00;99393.97;5074523;28;20024;-79
2022/08/21 08:47:49;;;;;;;6.35;3.40;;;;;;;16.36;100.00;99380.94;5051805;28;20397;-79
2022/08/21 08:50:26;;;;;;;3.20;2.88;;;;;;;16.43;100.00;99388.25;5051852;28;20082;-79
2022/08/21 08:53:00;;;;;;;4.28;3.33;;;;;;;16.52;100.00;99378.84;5034838;28;20068;-79
2022/08/21 08:55:46;;;;;;;3.90;3.05;;;;;;;16.57;100.00;99379.31;5052065;28;20037;-79
2022/08/21 08:58:30;;;;;;;3.22;2.85;;;;;;;16.68;100.00;99354.81;5051881;28;20048;-79
2022/08/21 09:00:56;;;;;;;3.05;2.72;;;;;;;16.77;100.00;99355.94;5033360;28;20378;-78
2022/08/21 09:03:26;;;;;;;3.03;2.70;;;;;;;16.96;100.00;99354.41;5048567;28;20059;-79
2022/08/21 09:06:18;;;;;;;4.28;2.92;;;;;;;17.15;100.00;99356.47;5038697;28;20537;-78
2022/08/21 09:09:11;;;;;;;3.20;2.75;;;;;;;17.29;100.00;99352.72;5033930;28;20493;-79
2022/08/21 09:11:56;;;;;;;5.38;2.95;;;;;;;17.32;100.00;99344.59;5031888;28;20045;-80
2022/08/21 09:14:21;;;;;;;3.85;3.38;;;;;;;17.41;100.00;99361.47;5026021;28;20083;-79
2022/08/21 09:17:03;;;;;;;4.57;3.13;;;;;;;17.42;100.00;99366.59;5028694;28;20025;-80
2022/08/21 09:19:48;;;;;;;3.53;3.00;;;;;;;17.43;100.00;99373.53;5048472;28;20041;-81
2022/08/21 09:22:27;;;;;;;4.47;3.20;;;;;;;17.37;100.00;99381.94;5054153;28;20029;-80
2022/08/21 09:25:07;;;;;;;2.75;2.55;;;;;;;17.29;100.00;99384.31;5052557;28;20067;-80
2022/08/21 09:27:34;;;;;;;4.07;2.85;;;;;;;17.14;100.00;99385.50;5053732;28;20559;-80
2022/08/21 09:29:59;;;;;;;3.90;2.83;;;;;;;17.04;100.00;99382.75;5050884;28;20501;-80
2022/08/21 09:32:28;;;;;;;4.10;2.75;;;;;;;16.96;100.00;99396.50;5051019;28;20089;-80
2022/08/21 09:35:15;;;;;;;4.80;3.15;;;;;;;16.86;100.00;99400.81;5050840;28;20049;-86
2022/08/21 09:38:02;;;;;;;3.70;2.92;;;;;;;16.73;100.00;99386.94;5030044;28;20033;-84
2022/08/21 09:40:39;;;;;;;3.20;2.85;;;;;;;16.69;100.00;99390.72;5014418;28;20041;-85
2022/08/21 09:43:21;;;;;;;5.82;3.58;;;;;;;16.60;100.00;99386.13;5031042;28;20029;-84
2022/08/21 09:46:00;;;;;;;4.25;3.00;;;;;;;16.62;100.00;99389.50;5014098;28;20068;-84
2022/08/21 09:48:26;;;;;;;3.42;3.13;;;;;;;16.60;100.00;99394.88;5031000;28;20033;-85
2022/08/21 09:50:53;;;;;;;3.45;3.15;;;;;;;16.64;100.00;99392.81;5030979;28;20037;-83
2022/08/21 09:53:30;;;;;;;3.95;3.55;;;;;;;16.65;100.00;99397.16;5030415;28;20037;-83
2022/08/21 09:58:49;;;;;;;48.90;27.08;;;;;;;16.63;100.00;99396.41;5030959;28;20494;-83
2022/08/21 10:01:22;;;;;;;119.22;62.88;;;;;;;16.60;100.00;99388.75;5040377;28;20041;-84
2022/08/21 10:03:48;;;;;;;18.55;11.38;;;;;;;16.57;100.00;99387.22;4983386;28;20500;-88
2022/08/21 10:06:27;;;;;;;7.15;5.47;;;;;;;16.66;100.00;99397.03;4956022;28;20043;-86
2022/08/21 10:09:06;;;;;;;8.05;5.80;;;;;;;16.64;100.00;99385.81;4971752;28;20047;-88
2022/08/21 10:11:33;;;;;;;12.27;8.77;;;;;;;16.64;100.00;99390.19;4971931;28;20035;-89
2022/08/21 10:14:05;;;;;;;12.30;7.43;;;;;;;16.66;100.00;99385.69;4971593;28;20554;-84
2022/08/21 10:16:52;;;;;;;15.30;9.00;;;;;;;16.66;100.00;99389.13;4955506;28;20126;-82
2022/08/21 10:19:26;;;;;;;9.55;7.57;;;;;;;16.64;100.00;99391.06;4955587;28;20042;-83
2022/08/21 10:22:10;;;;;;;14.50;10.23;;;;;;;16.64;100.00;99385.81;4955255;28;20081;-87
2022/08/21 10:24:45;;;;;;;43.05;27.90;;;;;;;16.64;100.00;99385.81;4971453;28;20098;-83
2022/08/21 10:27:26;;;;;;;27.00;18.08;;;;;;;16.66;100.00;99389.13;4955572;28;20030;-87
2022/08/21 10:30:00;;;;;;;24.13;16.20;;;;;;;16.67;100.00;99385.56;4971274;28;20448;-89
2022/08/21 10:32:40;;;;;;;18.17;12.50;;;;;;;16.80;100.00;99385.47;4971327;28;20472;-83
2022/08/21 10:35:22;;;;;;;11.55;7.72;;;;;;;16.87;100.00;99380.59;4988961;28;20042;-86
2022/08/21 10:38:10;;;;;;;12.02;8.68;;;;;;;16.94;100.00;99379.19;5011407;28;20033;-86
2022/08/21 10:40:57;;;;;;;4.45;4.03;;;;;;;16.98;100.00;99377.13;5012919;28;20611;-84
2022/08/21 10:43:56;;;;;;;8.68;5.72;;;;;;;17.07;100.00;99393.06;5011559;28;20120;-87
2022/08/21 10:46:32;;;;;;;11.50;10.18;;;;;;;17.11;100.00;99380.50;5011255;28;20104;-85
2022/08/21 10:49:07;;;;;;;11.00;8.38;;;;;;;17.18;100.00;99390.41;5012971;28;20455;-89
2022/08/21 10:51:49;;;;;;;21.23;16.15;;;;;;;17.17;100.00;99382.66;5011526;28;20475;-88
2022/08/21 10:54:30;;;;;;;8.48;6.00;;;;;;;17.19;100.00;99389.47;5017533;28;20041;-88
2022/08/21 10:57:05;;;;;;;40.58;31.13;;;;;;;17.17;100.00;99395.81;5021122;28;20032;-87
2022/08/21 10:59:51;;;;;;;13.88;11.93;;;;;;;17.14;100.00;99388.97;5000796;28;20111;-88
2022/08/21 11:02:23;;;;;;;8.68;6.25;;;;;;;17.17;100.00;99401.91;5003094;28;20037;-89
2022/08/21 11:05:14;;;;;;;10.07;6.55;;;;;;;17.10;100.00;99384.06;4999281;28;20524;-89
2022/08/21 11:07:54;;;;;;;18.40;14.70;;;;;;;17.18;100.00;99393.03;4977819;28;20035;-87
2022/08/21 11:10:27;;;;;;;6.30;4.90;;;;;;;17.17;100.00;99391.38;4942522;29;20043;-87
2022/08/21 11:13:11;;;;;;;7.10;4.80;;;;;;;17.22;100.00;99398.91;4935277;29;20046;-88
2022/08/21 11:15:38;;;;;;;8.85;5.70;;;;;;;17.22;100.00;99396.28;4935449;29;20042;-88
2022/08/21 11:18:30;;;;;;;9.55;7.53;;;;;;;17.16;100.00;99381.81;4951226;29;20184;-88
2022/08/21 11:21:14;;;;;;;18.80;15.02;;;;;;;17.26;100.00;99396.88;4935330;29;20043;-88
2022/08/21 11:23:47;;;;;;;9.57;6.78;;;;;;;17.24;100.00;99399.66;4894242;29;20405;-87
2022/08/21 11:26:18;;;;;;;8.20;6.68;;;;;;;17.13;100.00;99387.31;4884996;29;20045;-86
2022/08/21 11:28:59;;;;;;;18.95;16.48;;;;;;;17.16;100.00;99392.34;4875556;29;20522;-85
2022/08/21 11:31:34;;;;;;;12.25;10.13;;;;;;;17.17;100.00;99398.44;4875587;29;20041;-87
2022/08/21 11:34:40;;;;;;;10.50;6.88;;;;;;;17.13;100.00;99391.75;4875852;29;20036;-90